Aviation Digital Data Service (ADDS)

Output produced by METARs form (0815 UTC 28 July 2014)
found at http://www.aviationweather.gov/adds/metars/
 
KCMI 280520Z 2806/2906 29009KT P6SM SCT040 
     FM281500 34013G19KT P6SM SCT050 
     FM290100 VRB05KT P6SM SKC